sensor_id;sensor_type;location;lat;lon;timestamp;temperature;humidity
9768;DHT22;4923;52.520;13.494;2023-04-03T00:01:28;1.30;99.90
9768;DHT22;4923;52.520;13.494;2023-04-03T00:04:14;1.30;99.90
9768;DHT22;4923;52.520;13.494;2023-04-03T00:07:01;1.20;99.90
9768;DHT22;4923;52.520;13.494;2023-04-03T00:09:49;1.20;99.90
9768;DHT22;4923;52.520;13.494;2023-04-03T00:12:36;1.20;99.90
9768;DHT22;4923;52.520;13.494;2023-04-03T00:15:23;1.20;99.90
9768;DHT22;4923;52.520;13.494;2023-04-03T00:18:10;1.20;99.90
9768;DHT22;4923;52.520;13.494;2023-04-03T00:20:57;1.20;99.90
9768;DHT22;4923;52.520;13.494;2023-04-03T00:23:44;1.20;99.90
9768;DHT22;4923;52.520;13.494;2023-04-03T00:26:32;1.10;99.90
9768;DHT22;4923;52.520;13.494;2023-04-03T00:29:19;1.10;99.90
9768;DHT22;4923;52.520;13.494;2023-04-03T00:32:06;1.10;99.90
9768;DHT22;4923;52.520;13.494;2023-04-03T00:34:53;1.10;99.90
9768;DHT22;4923;52.520;13.494;2023-04-03T00:37:40;1.10;99.90
9768;DHT22;4923;52.520;13.494;2023-04-03T00:40:27;1.00;99.90
9768;DHT22;4923;52.520;13.494;2023-04-03T00:43:17;1.00;99.90
9768;DHT22;4923;52.520;13.494;2023-04-03T00:46:04;1.00;99.90
9768;DHT22;4923;52.520;13.494;2023-04-03T00:48:51;1.00;99.90
9768;DHT22;4923;52.520;13.494;2023-04-03T00:51:38;1.00;99.90
9768;DHT22;4923;52.520;13.494;2023-04-03T00:54:25;1.00;99.90
9768;DHT22;4923;52.520;13.494;2023-04-03T00:57:12;0.90;99.90
9768;DHT22;4923;52.520;13.494;2023-04-03T01:00:08;0.90;99.90
9768;DHT22;4923;52.520;13.494;2023-04-03T01:02:55;1.00;99.90
9768;DHT22;4923;52.520;13.494;2023-04-03T01:05:42;0.90;99.90
9768;DHT22;4923;52.520;13.494;2023-04-03T01:08:30;0.90;99.90
9768;DHT22;4923;52.520;13.494;2023-04-03T01:11:17;0.90;99.90
9768;DHT22;4923;52.520;13.494;2023-04-03T01:14:04;0.90;99.90
9768;DHT22;4923;52.520;13.494;2023-04-03T01:16:54;0.80;99.90
9768;DHT22;4923;52.520;13.494;2023-04-03T01:19:44;0.80;99.90
9768;DHT22;4923;52.520;13.494;2023-04-03T01:22:39;0.80;99.90
9768;DHT22;4923;52.520;13.494;2023-04-03T01:25:26;0.80;99.90
9768;DHT22;4923;52.520;13.494;2023-04-03T01:28:16;0.70;99.90
9768;DHT22;4923;52.520;13.494;2023-04-03T01:31:10;0.70;99.90
9768;DHT22;4923;52.520;13.494;2023-04-03T01:34:00;0.60;99.90
9768;DHT22;4923;52.520;13.494;2023-04-03T01:36:47;0.60;99.90
9768;DHT22;4923;52.520;13.494;2023-04-03T01:39:34;0.60;99.90
9768;DHT22;4923;52.520;13.494;2023-04-03T01:42:21;0.60;99.90
9768;DHT22;4923;52.520;13.494;2023-04-03T01:45:08;0.60;99.90
9768;DHT22;4923;52.520;13.494;2023-04-03T01:47:55;0.60;99.90
9768;DHT22;4923;52.520;13.494;2023-04-03T01:50:43;0.60;99.90
9768;DHT22;4923;52.520;13.494;2023-04-03T01:53:30;0.60;99.90
9768;DHT22;4923;52.520;13.494;2023-04-03T01:56:17;0.60;99.90
9768;DHT22;4923;52.520;13.494;2023-04-03T01:59:04;0.60;99.90
9768;DHT22;4923;52.520;13.494;2023-04-03T02:01:51;0.60;99.90
9768;DHT22;4923;52.520;13.494;2023-04-03T02:04:38;0.50;99.90
9768;DHT22;4923;52.520;13.494;2023-04-03T02:07:26;0.50;99.90
9768;DHT22;4923;52.520;13.494;2023-04-03T02:10:13;0.40;99.90
9768;DHT22;4923;52.520;13.494;2023-04-03T02:13:00;0.40;99.90
9768;DHT22;4923;52.520;13.494;2023-04-03T02:15:47;0.40;99.90
9768;DHT22;4923;52.520;13.494;2023-04-03T02:18:34;0.40;99.90
9768;DHT22;4923;52.520;13.494;2023-04-03T02:21:21;0.30;99.90
9768;DHT22;4923;52.520;13.494;2023-04-03T02:24:09;0.30;99.90
9768;DHT22;4923;52.520;13.494;2023-04-03T02:26:57;0.30;99.90
9768;DHT22;4923;52.520;13.494;2023-04-03T02:29:44;0.30;99.90
9768;DHT22;4923;52.520;13.494;2023-04-03T02:32:31;0.20;1.00
9768;DHT22;4923;52.520;13.494;2023-04-03T02:35:18;0.20;1.00
9768;DHT22;4923;52.520;13.494;2023-04-03T02:38:06;0.10;1.00
9768;DHT22;4923;52.520;13.494;2023-04-03T02:41:00;0.20;1.00
9768;DHT22;4923;52.520;13.494;2023-04-03T02:43:47;0.20;1.00
9768;DHT22;4923;52.520;13.494;2023-04-03T02:46:34;0.10;1.00
9768;DHT22;4923;52.520;13.494;2023-04-03T02:49:21;0.20;1.00
9768;DHT22;4923;52.520;13.494;2023-04-03T02:52:07;0.30;1.00
9768;DHT22;4923;52.520;13.494;2023-04-03T02:54:54;0.20;1.00
9768;DHT22;4923;52.520;13.494;2023-04-03T02:57:43;0.20;1.00
9768;DHT22;4923;52.520;13.494;2023-04-03T03:00:29;0.10;1.00
9768;DHT22;4923;52.520;13.494;2023-04-03T03:03:16;0.10;1.00
9768;DHT22;4923;52.520;13.494;2023-04-03T03:06:04;0.10;1.00
9768;DHT22;4923;52.520;13.494;2023-04-03T03:08:51;0.00;1.00
9768;DHT22;4923;52.520;13.494;2023-04-03T03:11:38;-0.10;1.00
9768;DHT22;4923;52.520;13.494;2023-04-03T03:14:26;-0.20;1.00
9768;DHT22;4923;52.520;13.494;2023-04-03T03:17:13;-0.20;1.00
9768;DHT22;4923;52.520;13.494;2023-04-03T03:20:00;-0.30;1.00
9768;DHT22;4923;52.520;13.494;2023-04-03T03:22:47;-0.30;1.00
9768;DHT22;4923;52.520;13.494;2023-04-03T03:25:37;-0.30;1.00
9768;DHT22;4923;52.520;13.494;2023-04-03T03:28:24;-0.40;1.00
9768;DHT22;4923;52.520;13.494;2023-04-03T03:31:12;-0.40;1.00
9768;DHT22;4923;52.520;13.494;2023-04-03T03:34:00;-0.40;1.00
9768;DHT22;4923;52.520;13.494;2023-04-03T03:36:47;-0.40;1.00
9768;DHT22;4923;52.520;13.494;2023-04-03T03:39:34;-0.40;1.00
9768;DHT22;4923;52.520;13.494;2023-04-03T03:42:21;-0.40;1.00
9768;DHT22;4923;52.520;13.494;2023-04-03T03:45:09;-0.50;1.00
9768;DHT22;4923;52.520;13.494;2023-04-03T03:47:57;-0.40;1.00
9768;DHT22;4923;52.520;13.494;2023-04-03T03:50:44;-0.50;1.00
9768;DHT22;4923;52.520;13.494;2023-04-03T03:53:31;-0.40;1.00
9768;DHT22;4923;52.520;13.494;2023-04-03T03:56:18;-0.50;1.00
9768;DHT22;4923;52.520;13.494;2023-04-03T03:59:05;-0.40;1.00
9768;DHT22;4923;52.520;13.494;2023-04-03T04:01:52;-0.50;1.00
9768;DHT22;4923;52.520;13.494;2023-04-03T04:04:40;-0.50;1.00
9768;DHT22;4923;52.520;13.494;2023-04-03T04:07:27;-0.40;1.00
9768;DHT22;4923;52.520;13.494;2023-04-03T04:10:14;-0.50;1.00
9768;DHT22;4923;52.520;13.494;2023-04-03T04:13:01;-0.50;1.00
9768;DHT22;4923;52.520;13.494;2023-04-03T04:15:48;-0.50;1.00
9768;DHT22;4923;52.520;13.494;2023-04-03T04:18:35;-0.50;1.00
9768;DHT22;4923;52.520;13.494;2023-04-03T04:21:23;-0.50;1.00
9768;DHT22;4923;52.520;13.494;2023-04-03T04:24:11;-0.60;1.00
9768;DHT22;4923;52.520;13.494;2023-04-03T04:26:58;-0.60;1.00
9768;DHT22;4923;52.520;13.494;2023-04-03T04:29:45;-0.70;1.00
9768;DHT22;4923;52.520;13.494;2023-04-03T04:32:32;-0.70;1.00
9768;DHT22;4923;52.520;13.494;2023-04-03T04:35:18;-0.70;1.00
9768;DHT22;4923;52.520;13.494;2023-04-03T04:38:07;-0.70;1.00
9768;DHT22;4923;52.520;13.494;2023-04-03T04:40:54;-0.80;1.00
9768;DHT22;4923;52.520;13.494;2023-04-03T04:43:41;-0.80;1.00
9768;DHT22;4923;52.520;13.494;2023-04-03T04:46:28;-0.70;1.00
9768;DHT22;4923;52.520;13.494;2023-04-03T04:49:15;-0.60;1.00
9768;DHT22;4923;52.520;13.494;2023-04-03T04:52:01;-0.70;1.00
9768;DHT22;4923;52.520;13.494;2023-04-03T04:54:50;-0.70;1.00
9768;DHT22;4923;52.520;13.494;2023-04-03T04:57:36;-0.60;1.00
9768;DHT22;4923;52.520;13.494;2023-04-03T05:00:24;-0.70;1.00
9768;DHT22;4923;52.520;13.494;2023-04-03T05:03:11;-0.70;1.00
9768;DHT22;4923;52.520;13.494;2023-04-03T05:05:58;-0.60;1.00
9768;DHT22;4923;52.520;13.494;2023-04-03T05:08:45;-0.60;1.00
9768;DHT22;4923;52.520;13.494;2023-04-03T05:11:34;-0.50;1.00
9768;DHT22;4923;52.520;13.494;2023-04-03T05:14:21;-0.40;1.00
9768;DHT22;4923;52.520;13.494;2023-04-03T05:17:07;-0.30;1.00
9768;DHT22;4923;52.520;13.494;2023-04-03T05:19:54;-0.20;1.00
9768;DHT22;4923;52.520;13.494;2023-04-03T05:22:41;-0.10;1.00
9768;DHT22;4923;52.520;13.494;2023-04-03T05:25:28;0.10;1.00
9768;DHT22;4923;52.520;13.494;2023-04-03T05:28:16;0.20;1.00
9768;DHT22;4923;52.520;13.494;2023-04-03T05:31:03;0.20;1.00
9768;DHT22;4923;52.520;13.494;2023-04-03T05:33:50;0.30;1.00
9768;DHT22;4923;52.520;13.494;2023-04-03T05:36:37;0.40;1.00
9768;DHT22;4923;52.520;13.494;2023-04-03T05:39:24;0.50;1.00
9768;DHT22;4923;52.520;13.494;2023-04-03T05:42:11;0.60;1.00
9768;DHT22;4923;52.520;13.494;2023-04-03T05:44:59;0.60;1.00
9768;DHT22;4923;52.520;13.494;2023-04-03T05:47:46;0.70;1.00
9768;DHT22;4923;52.520;13.494;2023-04-03T05:50:33;0.70;1.00
9768;DHT22;4923;52.520;13.494;2023-04-03T05:53:22;0.80;1.00
9768;DHT22;4923;52.520;13.494;2023-04-03T05:56:11;0.80;1.00
9768;DHT22;4923;52.520;13.494;2023-04-03T05:58:58;1.00;1.00
9768;DHT22;4923;52.520;13.494;2023-04-03T06:01:47;1.00;1.00
9768;DHT22;4923;52.520;13.494;2023-04-03T06:04:34;1.00;1.00
9768;DHT22;4923;52.520;13.494;2023-04-03T06:07:23;1.10;1.00
9768;DHT22;4923;52.520;13.494;2023-04-03T06:10:13;1.30;1.00
9768;DHT22;4923;52.520;13.494;2023-04-03T06:13:00;1.20;1.00
9768;DHT22;4923;52.520;13.494;2023-04-03T06:15:47;1.30;1.00
9768;DHT22;4923;52.520;13.494;2023-04-03T06:18:35;1.40;1.00
9768;DHT22;4923;52.520;13.494;2023-04-03T06:21:22;1.50;1.00
9768;DHT22;4923;52.520;13.494;2023-04-03T06:24:10;1.60;1.00
9768;DHT22;4923;52.520;13.494;2023-04-03T06:26:59;1.60;1.00
9768;DHT22;4923;52.520;13.494;2023-04-03T06:29:46;1.70;99.90
9768;DHT22;4923;52.520;13.494;2023-04-03T06:32:33;1.80;99.90
9768;DHT22;4923;52.520;13.494;2023-04-03T06:35:22;1.80;99.90
9768;DHT22;4923;52.520;13.494;2023-04-03T06:38:09;1.90;99.90
9768;DHT22;4923;52.520;13.494;2023-04-03T06:40:56;2.00;99.90
9768;DHT22;4923;52.520;13.494;2023-04-03T06:43:44;2.10;99.90
9768;DHT22;4923;52.520;13.494;2023-04-03T06:46:31;2.20;99.90
9768;DHT22;4923;52.520;13.494;2023-04-03T06:49:18;2.30;99.90
9768;DHT22;4923;52.520;13.494;2023-04-03T06:52:06;2.30;99.90
9768;DHT22;4923;52.520;13.494;2023-04-03T06:54:53;2.40;99.90
9768;DHT22;4923;52.520;13.494;2023-04-03T06:57:42;2.40;99.90
9768;DHT22;4923;52.520;13.494;2023-04-03T07:00:30;2.50;99.90
9768;DHT22;4923;52.520;13.494;2023-04-03T07:03:17;2.60;99.90
9768;DHT22;4923;52.520;13.494;2023-04-03T07:06:04;2.80;99.90
9768;DHT22;4923;52.520;13.494;2023-04-03T07:08:54;2.80;99.90
9768;DHT22;4923;52.520;13.494;2023-04-03T07:11:41;2.90;83.70
9768;DHT22;4923;52.520;13.494;2023-04-03T07:14:28;2.80;24.00
9768;DHT22;4923;52.520;13.494;2023-04-03T07:17:14;2.80;36.10
9768;DHT22;4923;52.520;13.494;2023-04-03T07:20:02;2.90;1.20
9768;DHT22;4923;52.520;13.494;2023-04-03T07:22:49;3.00;1.00
9768;DHT22;4923;52.520;13.494;2023-04-03T07:25:42;3.30;1.00
9768;DHT22;4923;52.520;13.494;2023-04-03T07:28:29;3.70;1.00
9768;DHT22;4923;52.520;13.494;2023-04-03T07:31:16;3.80;1.00
9768;DHT22;4923;52.520;13.494;2023-04-03T07:34:04;3.80;1.00
9768;DHT22;4923;52.520;13.494;2023-04-03T07:36:51;3.90;1.00
9768;DHT22;4923;52.520;13.494;2023-04-03T07:39:38;4.10;1.00
9768;DHT22;4923;52.520;13.494;2023-04-03T07:42:26;4.20;1.00
9768;DHT22;4923;52.520;13.494;2023-04-03T07:45:14;4.10;1.00
9768;DHT22;4923;52.520;13.494;2023-04-03T07:48:00;4.10;1.00
9768;DHT22;4923;52.520;13.494;2023-04-03T07:50:48;4.10;1.00
9768;DHT22;4923;52.520;13.494;2023-04-03T07:53:35;4.00;1.00
9768;DHT22;4923;52.520;13.494;2023-04-03T07:56:22;4.10;1.00
9768;DHT22;4923;52.520;13.494;2023-04-03T07:59:12;4.30;1.00
9768;DHT22;4923;52.520;13.494;2023-04-03T08:01:59;4.20;1.00
9768;DHT22;4923;52.520;13.494;2023-04-03T08:04:45;4.40;1.00
9768;DHT22;4923;52.520;13.494;2023-04-03T08:07:32;4.20;1.00
9768;DHT22;4923;52.520;13.494;2023-04-03T08:10:19;4.40;1.00
9768;DHT22;4923;52.520;13.494;2023-04-03T08:13:08;4.40;1.00
9768;DHT22;4923;52.520;13.494;2023-04-03T08:15:56;4.70;1.00
9768;DHT22;4923;52.520;13.494;2023-04-03T08:18:44;4.60;1.00
9768;DHT22;4923;52.520;13.494;2023-04-03T08:21:31;4.60;1.00
9768;DHT22;4923;52.520;13.494;2023-04-03T08:24:18;4.50;1.00
9768;DHT22;4923;52.520;13.494;2023-04-03T08:27:05;4.30;1.00
9768;DHT22;4923;52.520;13.494;2023-04-03T08:29:52;4.30;1.00
9768;DHT22;4923;52.520;13.494;2023-04-03T08:32:40;4.10;1.00
9768;DHT22;4923;52.520;13.494;2023-04-03T08:35:28;4.40;1.00
9768;DHT22;4923;52.520;13.494;2023-04-03T08:38:16;4.30;1.00
9768;DHT22;4923;52.520;13.494;2023-04-03T08:41:07;4.00;1.00
9768;DHT22;4923;52.520;13.494;2023-04-03T08:44:13;4.20;1.00
9768;DHT22;4923;52.520;13.494;2023-04-03T08:47:12;4.20;1.00
9768;DHT22;4923;52.520;13.494;2023-04-03T08:50:07;4.00;1.00
9768;DHT22;4923;52.520;13.494;2023-04-03T08:52:58;4.20;1.00
9768;DHT22;4923;52.520;13.494;2023-04-03T08:55:47;4.30;1.00
9768;DHT22;4923;52.520;13.494;2023-04-03T08:58:41;4.40;1.00
9768;DHT22;4923;52.520;13.494;2023-04-03T09:01:35;4.30;1.00
9768;DHT22;4923;52.520;13.494;2023-04-03T09:04:24;4.20;1.00
9768;DHT22;4923;52.520;13.494;2023-04-03T09:07:21;4.10;1.00
9768;DHT22;4923;52.520;13.494;2023-04-03T09:10:11;4.20;1.00
9768;DHT22;4923;52.520;13.494;2023-04-03T09:13:03;4.30;1.00
9768;DHT22;4923;52.520;13.494;2023-04-03T09:15:53;4.80;1.00
9768;DHT22;4923;52.520;13.494;2023-04-03T09:18:45;5.10;1.00
9768;DHT22;4923;52.520;13.494;2023-04-03T09:21:37;5.30;1.00
9768;DHT22;4923;52.520;13.494;2023-04-03T09:24:26;5.30;1.00
9768;DHT22;4923;52.520;13.494;2023-04-03T09:27:13;5.20;1.00
9768;DHT22;4923;52.520;13.494;2023-04-03T09:30:00;5.10;1.00
9768;DHT22;4923;52.520;13.494;2023-04-03T09:32:49;5.20;1.00
9768;DHT22;4923;52.520;13.494;2023-04-03T09:35:37;5.10;1.00
9768;DHT22;4923;52.520;13.494;2023-04-03T09:38:24;5.10;1.00
9768;DHT22;4923;52.520;13.494;2023-04-03T09:41:16;5.30;1.00
9768;DHT22;4923;52.520;13.494;2023-04-03T09:44:17;5.40;1.00
9768;DHT22;4923;52.520;13.494;2023-04-03T09:47:18;5.50;1.00
9768;DHT22;4923;52.520;13.494;2023-04-03T09:50:18;5.70;1.00
9768;DHT22;4923;52.520;13.494;2023-04-03T09:53:07;5.80;1.00
9768;DHT22;4923;52.520;13.494;2023-04-03T09:55:54;5.30;1.00
9768;DHT22;4923;52.520;13.494;2023-04-03T09:58:44;5.30;1.00
9768;DHT22;4923;52.520;13.494;2023-04-03T10:01:33;5.40;1.00
9768;DHT22;4923;52.520;13.494;2023-04-03T10:04:20;5.60;1.00
9768;DHT22;4923;52.520;13.494;2023-04-03T10:07:29;5.70;1.00
9768;DHT22;4923;52.520;13.494;2023-04-03T10:10:18;5.40;1.00
9768;DHT22;4923;52.520;13.494;2023-04-03T10:13:07;5.20;1.00
9768;DHT22;4923;52.520;13.494;2023-04-03T10:16:03;5.10;1.00
9768;DHT22;4923;52.520;13.494;2023-04-03T10:19:03;5.40;1.00
9768;DHT22;4923;52.520;13.494;2023-04-03T10:21:59;5.60;1.00
9768;DHT22;4923;52.520;13.494;2023-04-03T10:24:52;5.70;1.00
9768;DHT22;4923;52.520;13.494;2023-04-03T10:27:48;5.70;1.00
9768;DHT22;4923;52.520;13.494;2023-04-03T10:30:46;5.80;1.00
9768;DHT22;4923;52.520;13.494;2023-04-03T10:33:42;6.20;1.00
9768;DHT22;4923;52.520;13.494;2023-04-03T10:36:40;6.00;1.00
9768;DHT22;4923;52.520;13.494;2023-04-03T10:39:33;5.70;1.00
9768;DHT22;4923;52.520;13.494;2023-04-03T10:42:27;5.60;1.00
9768;DHT22;4923;52.520;13.494;2023-04-03T10:45:21;5.70;1.00
9768;DHT22;4923;52.520;13.494;2023-04-03T10:48:14;5.80;1.00
9768;DHT22;4923;52.520;13.494;2023-04-03T10:51:15;6.00;1.00
9768;DHT22;4923;52.520;13.494;2023-04-03T10:54:07;6.00;1.00
9768;DHT22;4923;52.520;13.494;2023-04-03T10:56:58;6.30;1.00
9768;DHT22;4923;52.520;13.494;2023-04-03T10:59:50;5.90;1.00
9768;DHT22;4923;52.520;13.494;2023-04-03T11:02:44;5.90;1.00
9768;DHT22;4923;52.520;13.494;2023-04-03T11:05:36;5.90;1.00
9768;DHT22;4923;52.520;13.494;2023-04-03T11:08:28;5.70;1.00
9768;DHT22;4923;52.520;13.494;2023-04-03T11:11:20;5.60;1.00
9768;DHT22;4923;52.520;13.494;2023-04-03T11:14:13;6.00;1.00
9768;DHT22;4923;52.520;13.494;2023-04-03T11:17:08;6.10;1.00
9768;DHT22;4923;52.520;13.494;2023-04-03T11:20:03;6.00;1.00
9768;DHT22;4923;52.520;13.494;2023-04-03T11:22:58;6.30;1.00
9768;DHT22;4923;52.520;13.494;2023-04-03T11:25:51;6.70;1.00
9768;DHT22;4923;52.520;13.494;2023-04-03T11:28:39;6.00;1.00
9768;DHT22;4923;52.520;13.494;2023-04-03T11:31:33;6.00;1.00
9768;DHT22;4923;52.520;13.494;2023-04-03T11:34:29;6.00;1.00
9768;DHT22;4923;52.520;13.494;2023-04-03T11:37:23;6.20;1.00
9768;DHT22;4923;52.520;13.494;2023-04-03T11:40:21;6.50;1.00
9768;DHT22;4923;52.520;13.494;2023-04-03T11:43:21;6.50;1.00
9768;DHT22;4923;52.520;13.494;2023-04-03T11:46:08;6.30;1.00
9768;DHT22;4923;52.520;13.494;2023-04-03T11:48:56;6.30;1.00
9768;DHT22;4923;52.520;13.494;2023-04-03T11:51:43;6.20;1.00
9768;DHT22;4923;52.520;13.494;2023-04-03T11:54:47;6.00;1.00
9768;DHT22;4923;52.520;13.494;2023-04-03T11:58:03;6.00;1.00
9768;DHT22;4923;52.520;13.494;2023-04-03T12:01:07;6.30;1.00
9768;DHT22;4923;52.520;13.494;2023-04-03T12:04:08;6.40;1.00
9768;DHT22;4923;52.520;13.494;2023-04-03T12:07:02;6.20;1.00
9768;DHT22;4923;52.520;13.494;2023-04-03T12:09:58;6.30;1.00
9768;DHT22;4923;52.520;13.494;2023-04-03T12:12:56;6.20;1.00
9768;DHT22;4923;52.520;13.494;2023-04-03T12:15:49;5.60;1.00
9768;DHT22;4923;52.520;13.494;2023-04-03T12:18:43;6.20;1.00
9768;DHT22;4923;52.520;13.494;2023-04-03T12:22:09;6.20;1.00
9768;DHT22;4923;52.520;13.494;2023-04-03T12:24:56;6.60;1.00
9768;DHT22;4923;52.520;13.494;2023-04-03T12:27:43;6.00;1.00
9768;DHT22;4923;52.520;13.494;2023-04-03T12:30:30;5.80;1.00
9768;DHT22;4923;52.520;13.494;2023-04-03T12:33:27;5.80;1.00
9768;DHT22;4923;52.520;13.494;2023-04-03T12:36:25;6.00;1.00
9768;DHT22;4923;52.520;13.494;2023-04-03T12:39:39;6.00;1.00
9768;DHT22;4923;52.520;13.494;2023-04-03T12:42:42;5.90;1.00
9768;DHT22;4923;52.520;13.494;2023-04-03T12:45:40;5.90;1.00
9768;DHT22;4923;52.520;13.494;2023-04-03T12:48:30;5.60;1.00
9768;DHT22;4923;52.520;13.494;2023-04-03T12:51:21;5.50;1.00
9768;DHT22;4923;52.520;13.494;2023-04-03T12:54:14;5.80;1.00
9768;DHT22;4923;52.520;13.494;2023-04-03T12:57:12;6.20;1.00
9768;DHT22;4923;52.520;13.494;2023-04-03T12:59:59;6.40;1.00
9768;DHT22;4923;52.520;13.494;2023-04-03T13:02:47;6.20;1.00
9768;DHT22;4923;52.520;13.494;2023-04-03T13:05:34;6.40;1.00
9768;DHT22;4923;52.520;13.494;2023-04-03T13:08:23;6.60;1.00
9768;DHT22;4923;52.520;13.494;2023-04-03T13:11:11;6.60;1.00
9768;DHT22;4923;52.520;13.494;2023-04-03T13:13:59;6.60;1.00
9768;DHT22;4923;52.520;13.494;2023-04-03T13:16:58;6.70;1.00
9768;DHT22;4923;52.520;13.494;2023-04-03T13:19:45;6.50;1.00
9768;DHT22;4923;52.520;13.494;2023-04-03T13:22:35;6.40;1.00
9768;DHT22;4923;52.520;13.494;2023-04-03T13:25:28;6.30;1.00
9768;DHT22;4923;52.520;13.494;2023-04-03T13:28:18;6.10;1.00
9768;DHT22;4923;52.520;13.494;2023-04-03T13:31:08;6.00;1.00
9768;DHT22;4923;52.520;13.494;2023-04-03T13:34:06;5.90;1.00
9768;DHT22;4923;52.520;13.494;2023-04-03T13:36:58;5.80;1.00
9768;DHT22;4923;52.520;13.494;2023-04-03T13:39:57;5.90;1.00
9768;DHT22;4923;52.520;13.494;2023-04-03T13:42:45;5.90;1.00
9768;DHT22;4923;52.520;13.494;2023-04-03T13:45:33;5.80;1.00
9768;DHT22;4923;52.520;13.494;2023-04-03T13:48:21;5.70;1.00
9768;DHT22;4923;52.520;13.494;2023-04-03T13:51:18;5.80;1.00
9768;DHT22;4923;52.520;13.494;2023-04-03T13:54:18;5.30;1.00
9768;DHT22;4923;52.520;13.494;2023-04-03T13:57:12;5.50;1.00
9768;DHT22;4923;52.520;13.494;2023-04-03T14:00:20;5.40;1.00
9768;DHT22;4923;52.520;13.494;2023-04-03T14:03:16;5.50;1.00
9768;DHT22;4923;52.520;13.494;2023-04-03T14:06:05;5.50;1.00
9768;DHT22;4923;52.520;13.494;2023-04-03T14:08:53;5.80;1.00
9768;DHT22;4923;52.520;13.494;2023-04-03T14:11:41;5.60;1.00
9768;DHT22;4923;52.520;13.494;2023-04-03T14:14:34;5.80;1.00
9768;DHT22;4923;52.520;13.494;2023-04-03T14:17:24;5.70;1.00
9768;DHT22;4923;52.520;13.494;2023-04-03T14:20:15;5.80;1.00
9768;DHT22;4923;52.520;13.494;2023-04-03T14:23:02;6.10;1.00
9768;DHT22;4923;52.520;13.494;2023-04-03T14:25:49;5.90;1.00
9768;DHT22;4923;52.520;13.494;2023-04-03T14:28:36;6.30;1.00
9768;DHT22;4923;52.520;13.494;2023-04-03T14:31:24;6.80;1.00
9768;DHT22;4923;52.520;13.494;2023-04-03T14:34:14;6.70;1.00
9768;DHT22;4923;52.520;13.494;2023-04-03T14:37:01;6.40;1.00
9768;DHT22;4923;52.520;13.494;2023-04-03T14:39:48;5.90;1.00
9768;DHT22;4923;52.520;13.494;2023-04-03T14:42:37;5.60;1.00
9768;DHT22;4923;52.520;13.494;2023-04-03T14:45:25;5.50;1.00
9768;DHT22;4923;52.520;13.494;2023-04-03T14:48:17;5.70;1.00
9768;DHT22;4923;52.520;13.494;2023-04-03T14:51:06;5.60;1.00
9768;DHT22;4923;52.520;13.494;2023-04-03T14:53:53;5.50;1.00
9768;DHT22;4923;52.520;13.494;2023-04-03T14:56:42;5.40;1.00
9768;DHT22;4923;52.520;13.494;2023-04-03T14:59:31;5.40;1.00
9768;DHT22;4923;52.520;13.494;2023-04-03T15:02:26;5.20;1.00
9768;DHT22;4923;52.520;13.494;2023-04-03T15:05:14;5.10;1.00
9768;DHT22;4923;52.520;13.494;2023-04-03T15:08:02;5.00;1.00
9768;DHT22;4923;52.520;13.494;2023-04-03T15:10:49;5.20;1.00
9768;DHT22;4923;52.520;13.494;2023-04-03T15:13:38;5.30;1.00
9768;DHT22;4923;52.520;13.494;2023-04-03T15:16:25;5.10;1.00
9768;DHT22;4923;52.520;13.494;2023-04-03T15:19:12;5.00;1.00
9768;DHT22;4923;52.520;13.494;2023-04-03T15:21:59;4.90;1.00
9768;DHT22;4923;52.520;13.494;2023-04-03T15:24:47;4.80;1.00
9768;DHT22;4923;52.520;13.494;2023-04-03T15:27:34;4.80;1.00
9768;DHT22;4923;52.520;13.494;2023-04-03T15:30:21;4.90;1.00
9768;DHT22;4923;52.520;13.494;2023-04-03T15:33:08;4.90;1.00
9768;DHT22;4923;52.520;13.494;2023-04-03T15:35:55;5.00;1.00
9768;DHT22;4923;52.520;13.494;2023-04-03T15:38:42;4.80;1.00
9768;DHT22;4923;52.520;13.494;2023-04-03T15:41:31;4.80;1.00
9768;DHT22;4923;52.520;13.494;2023-04-03T15:44:18;5.00;1.00
9768;DHT22;4923;52.520;13.494;2023-04-03T15:47:05;5.10;1.00
9768;DHT22;4923;52.520;13.494;2023-04-03T15:49:53;5.20;1.00
9768;DHT22;4923;52.520;13.494;2023-04-03T15:52:41;4.90;1.00
9768;DHT22;4923;52.520;13.494;2023-04-03T15:55:29;4.70;1.00
9768;DHT22;4923;52.520;13.494;2023-04-03T15:58:18;4.50;1.00
9768;DHT22;4923;52.520;13.494;2023-04-03T16:01:05;4.40;1.00
9768;DHT22;4923;52.520;13.494;2023-04-03T16:03:53;4.50;1.00
9768;DHT22;4923;52.520;13.494;2023-04-03T16:06:40;4.70;1.00
9768;DHT22;4923;52.520;13.494;2023-04-03T16:09:27;4.90;1.00
9768;DHT22;4923;52.520;13.494;2023-04-03T16:12:14;4.90;1.00
9768;DHT22;4923;52.520;13.494;2023-04-03T16:15:03;5.00;1.00
9768;DHT22;4923;52.520;13.494;2023-04-03T16:17:51;5.40;1.00
9768;DHT22;4923;52.520;13.494;2023-04-03T16:20:39;5.40;1.00
9768;DHT22;4923;52.520;13.494;2023-04-03T16:23:26;5.60;1.00
9768;DHT22;4923;52.520;13.494;2023-04-03T16:26:13;5.30;1.00
9768;DHT22;4923;52.520;13.494;2023-04-03T16:29:01;5.30;1.00
9768;DHT22;4923;52.520;13.494;2023-04-03T16:31:49;5.20;1.00
9768;DHT22;4923;52.520;13.494;2023-04-03T16:34:37;5.00;1.00
9768;DHT22;4923;52.520;13.494;2023-04-03T16:37:25;4.90;1.00
9768;DHT22;4923;52.520;13.494;2023-04-03T16:40:14;4.90;1.00
9768;DHT22;4923;52.520;13.494;2023-04-03T16:43:01;4.80;1.00
9768;DHT22;4923;52.520;13.494;2023-04-03T16:45:48;4.70;1.00
9768;DHT22;4923;52.520;13.494;2023-04-03T16:48:37;4.60;1.00
9768;DHT22;4923;52.520;13.494;2023-04-03T16:51:24;4.60;1.00
9768;DHT22;4923;52.520;13.494;2023-04-03T16:54:11;4.60;1.00
9768;DHT22;4923;52.520;13.494;2023-04-03T16:56:59;4.60;1.00
9768;DHT22;4923;52.520;13.494;2023-04-03T16:59:46;4.60;1.00
9768;DHT22;4923;52.520;13.494;2023-04-03T17:02:32;4.60;1.00
9768;DHT22;4923;52.520;13.494;2023-04-03T17:05:20;4.60;1.00
9768;DHT22;4923;52.520;13.494;2023-04-03T17:08:08;4.60;1.00
9768;DHT22;4923;52.520;13.494;2023-04-03T17:10:54;4.50;1.00
9768;DHT22;4923;52.520;13.494;2023-04-03T17:13:42;4.50;1.00
9768;DHT22;4923;52.520;13.494;2023-04-03T17:16:29;4.40;1.00
9768;DHT22;4923;52.520;13.494;2023-04-03T17:19:16;4.50;1.00
9768;DHT22;4923;52.520;13.494;2023-04-03T17:22:04;4.50;1.00
9768;DHT22;4923;52.520;13.494;2023-04-03T17:24:51;4.60;1.00
9768;DHT22;4923;52.520;13.494;2023-04-03T17:27:38;4.50;1.00
9768;DHT22;4923;52.520;13.494;2023-04-03T17:30:25;4.40;1.00
9768;DHT22;4923;52.520;13.494;2023-04-03T17:33:12;4.40;1.00
9768;DHT22;4923;52.520;13.494;2023-04-03T17:35:59;4.40;1.00
9768;DHT22;4923;52.520;13.494;2023-04-03T17:38:49;4.20;1.00
9768;DHT22;4923;52.520;13.494;2023-04-03T17:41:36;4.20;1.00
9768;DHT22;4923;52.520;13.494;2023-04-03T17:44:23;4.20;1.00
9768;DHT22;4923;52.520;13.494;2023-04-03T17:47:10;4.20;1.00
9768;DHT22;4923;52.520;13.494;2023-04-03T17:49:57;4.20;1.00
9768;DHT22;4923;52.520;13.494;2023-04-03T17:52:44;4.20;1.00
9768;DHT22;4923;52.520;13.494;2023-04-03T17:55:32;4.10;1.00
9768;DHT22;4923;52.520;13.494;2023-04-03T17:58:19;4.10;1.00
9768;DHT22;4923;52.520;13.494;2023-04-03T18:01:11;4.10;1.00
9768;DHT22;4923;52.520;13.494;2023-04-03T18:03:59;4.00;1.00
9768;DHT22;4923;52.520;13.494;2023-04-03T18:06:48;4.00;1.00
9768;DHT22;4923;52.520;13.494;2023-04-03T18:09:35;4.00;1.00
9768;DHT22;4923;52.520;13.494;2023-04-03T18:12:25;4.00;1.00
9768;DHT22;4923;52.520;13.494;2023-04-03T18:15:12;4.00;1.00
9768;DHT22;4923;52.520;13.494;2023-04-03T18:17:59;4.00;1.00
9768;DHT22;4923;52.520;13.494;2023-04-03T18:20:46;3.90;1.00
9768;DHT22;4923;52.520;13.494;2023-04-03T18:23:34;3.80;1.00
9768;DHT22;4923;52.520;13.494;2023-04-03T18:26:24;3.80;1.00
9768;DHT22;4923;52.520;13.494;2023-04-03T18:29:14;3.70;1.00
9768;DHT22;4923;52.520;13.494;2023-04-03T18:32:02;3.70;1.00
9768;DHT22;4923;52.520;13.494;2023-04-03T18:34:49;3.60;1.00
9768;DHT22;4923;52.520;13.494;2023-04-03T18:37:36;3.50;1.00